sensor_id;sensor_type;location;lat;lon;timestamp;pressure;altitude;pressure_sealevel;temperature;humidity
57232;BME280;43488;46.934;8.276;2023-03-16T00:00:52;96757.19;;;2.95;71.18
57232;BME280;43488;46.934;8.276;2023-03-16T00:03:20;96760.72;;;2.86;71.11
57232;BME280;43488;46.934;8.276;2023-03-16T00:05:51;96761.56;;;2.69;71.98
57232;BME280;43488;46.934;8.276;2023-03-16T00:08:19;96758.81;;;2.70;72.58
57232;BME280;43488;46.934;8.276;2023-03-16T00:10:46;96746.94;;;2.68;72.64
57232;BME280;43488;46.934;8.276;2023-03-16T00:13:17;96754.44;;;2.71;72.52
57232;BME280;43488;46.934;8.276;2023-03-16T00:15:55;96749.38;;;2.69;71.83
57232;BME280;43488;46.934;8.276;2023-03-16T00:18:26;96756.00;;;2.64;71.94
57232;BME280;43488;46.934;8.276;2023-03-16T00:20:57;96753.28;;;2.65;71.83
57232;BME280;43488;46.934;8.276;2023-03-16T00:23:25;96753.63;;;2.70;71.55
57232;BME280;43488;46.934;8.276;2023-03-16T00:25:58;96751.94;;;2.61;71.77
57232;BME280;43488;46.934;8.276;2023-03-16T00:28:27;96757.78;;;2.63;71.65
57232;BME280;43488;46.934;8.276;2023-03-16T00:30:54;96750.66;;;2.65;71.99
57232;BME280;43488;46.934;8.276;2023-03-16T00:33:26;96751.59;;;2.64;72.38
57232;BME280;43488;46.934;8.276;2023-03-16T00:35:53;96756.00;;;2.64;72.44
57232;BME280;43488;46.934;8.276;2023-03-16T00:38:37;96747.09;;;2.66;71.92
57232;BME280;43488;46.934;8.276;2023-03-16T00:41:07;96746.78;;;2.69;72.17
57232;BME280;43488;46.934;8.276;2023-03-16T00:43:36;96746.13;;;2.67;71.64
57232;BME280;43488;46.934;8.276;2023-03-16T00:46:14;96742.88;;;2.65;71.73
57232;BME280;43488;46.934;8.276;2023-03-16T00:48:45;96749.69;;;2.66;71.35
57232;BME280;43488;46.934;8.276;2023-03-16T00:51:16;96743.22;;;2.70;71.50
57232;BME280;43488;46.934;8.276;2023-03-16T00:53:45;96737.34;;;2.68;71.00
57232;BME280;43488;46.934;8.276;2023-03-16T00:56:13;96732.97;;;2.69;71.27
57232;BME280;43488;46.934;8.276;2023-03-16T00:58:42;96722.69;;;2.59;71.51
57232;BME280;43488;46.934;8.276;2023-03-16T01:01:14;96728.47;;;2.53;71.77
57232;BME280;43488;46.934;8.276;2023-03-16T01:03:43;96728.63;;;2.51;71.71
57232;BME280;43488;46.934;8.276;2023-03-16T01:06:16;96724.34;;;2.42;72.20
57232;BME280;43488;46.934;8.276;2023-03-16T01:08:43;96719.94;;;2.43;72.01
57232;BME280;43488;46.934;8.276;2023-03-16T01:11:14;96715.88;;;2.40;72.12
57232;BME280;43488;46.934;8.276;2023-03-16T01:13:46;96713.66;;;2.27;73.40
57232;BME280;43488;46.934;8.276;2023-03-16T01:16:16;96712.94;;;2.17;73.94
57232;BME280;43488;46.934;8.276;2023-03-16T01:18:49;96715.25;;;2.20;74.15
57232;BME280;43488;46.934;8.276;2023-03-16T01:21:19;96711.38;;;2.24;73.89
57232;BME280;43488;46.934;8.276;2023-03-16T01:23:50;96713.97;;;2.24;73.31
57232;BME280;43488;46.934;8.276;2023-03-16T01:26:20;96717.22;;;2.26;73.24
57232;BME280;43488;46.934;8.276;2023-03-16T01:28:48;96718.56;;;2.31;73.66
57232;BME280;43488;46.934;8.276;2023-03-16T01:31:16;96716.03;;;2.39;73.05
57232;BME280;43488;46.934;8.276;2023-03-16T01:33:44;96713.56;;;2.37;73.55
57232;BME280;43488;46.934;8.276;2023-03-16T01:36:15;96707.06;;;2.33;73.31
57232;BME280;43488;46.934;8.276;2023-03-16T01:38:43;96713.66;;;2.27;72.89
57232;BME280;43488;46.934;8.276;2023-03-16T01:41:11;96714.34;;;2.30;72.83
57232;BME280;43488;46.934;8.276;2023-03-16T01:43:41;96708.63;;;2.26;73.01
57232;BME280;43488;46.934;8.276;2023-03-16T01:46:16;96704.97;;;2.19;73.17
57232;BME280;43488;46.934;8.276;2023-03-16T01:49:03;96695.50;;;2.10;72.85
57232;BME280;43488;46.934;8.276;2023-03-16T01:51:45;96696.63;;;2.07;73.54
57232;BME280;43488;46.934;8.276;2023-03-16T01:57:09;96684.44;;;2.08;73.23
57232;BME280;43488;46.934;8.276;2023-03-16T01:59:54;96684.59;;;2.06;73.29
57232;BME280;43488;46.934;8.276;2023-03-16T02:02:29;96680.81;;;2.00;73.56
57232;BME280;43488;46.934;8.276;2023-03-16T02:05:07;96676.72;;;1.98;73.60
57232;BME280;43488;46.934;8.276;2023-03-16T02:07:50;96674.88;;;1.90;74.29
57232;BME280;43488;46.934;8.276;2023-03-16T02:10:19;96675.41;;;1.94;74.36
57232;BME280;43488;46.934;8.276;2023-03-16T02:12:46;96672.97;;;1.92;74.47
57232;BME280;43488;46.934;8.276;2023-03-16T02:15:14;96671.53;;;1.98;73.93
57232;BME280;43488;46.934;8.276;2023-03-16T02:17:43;96668.63;;;2.01;73.78
57232;BME280;43488;46.934;8.276;2023-03-16T02:20:42;96664.50;;;1.90;72.91
57232;BME280;43488;46.934;8.276;2023-03-16T02:23:18;96667.69;;;1.66;73.94
57232;BME280;43488;46.934;8.276;2023-03-16T02:26:02;96665.03;;;1.76;73.89
57232;BME280;43488;46.934;8.276;2023-03-16T02:31:24;96663.41;;;1.75;73.56
57232;BME280;43488;46.934;8.276;2023-03-16T02:33:53;96670.00;;;1.69;73.31
57232;BME280;43488;46.934;8.276;2023-03-16T02:36:21;96663.53;;;1.74;73.23
57232;BME280;43488;46.934;8.276;2023-03-16T02:38:49;96670.72;;;1.80;73.51
57232;BME280;43488;46.934;8.276;2023-03-16T02:41:20;96674.22;;;1.70;73.57
57232;BME280;43488;46.934;8.276;2023-03-16T02:43:57;96676.50;;;1.74;73.82
57232;BME280;43488;46.934;8.276;2023-03-16T02:46:29;96664.66;;;1.71;74.49
57232;BME280;43488;46.934;8.276;2023-03-16T02:49:28;96682.88;;;1.61;75.00
57232;BME280;43488;46.934;8.276;2023-03-16T02:51:59;96687.94;;;1.63;75.19
57232;BME280;43488;46.934;8.276;2023-03-16T02:54:26;96689.03;;;1.60;75.17
57232;BME280;43488;46.934;8.276;2023-03-16T02:56:54;96686.59;;;1.59;75.53
57232;BME280;43488;46.934;8.276;2023-03-16T02:59:22;96679.13;;;1.56;75.67
57232;BME280;43488;46.934;8.276;2023-03-16T03:01:49;96679.13;;;1.56;75.51
57232;BME280;43488;46.934;8.276;2023-03-16T03:04:18;96682.53;;;1.56;75.59
57232;BME280;43488;46.934;8.276;2023-03-16T03:06:46;96685.13;;;1.56;75.65
57232;BME280;43488;46.934;8.276;2023-03-16T03:09:13;96684.16;;;1.57;75.56
57232;BME280;43488;46.934;8.276;2023-03-16T03:11:40;96682.94;;;1.52;74.96
57232;BME280;43488;46.934;8.276;2023-03-16T03:14:08;96686.00;;;1.47;74.66
57232;BME280;43488;46.934;8.276;2023-03-16T03:16:36;96678.88;;;1.49;74.44
57232;BME280;43488;46.934;8.276;2023-03-16T03:19:03;96688.28;;;1.50;73.98
57232;BME280;43488;46.934;8.276;2023-03-16T03:21:30;96684.06;;;1.49;73.47
57232;BME280;43488;46.934;8.276;2023-03-16T03:23:57;96681.47;;;1.49;73.53
57232;BME280;43488;46.934;8.276;2023-03-16T03:26:24;96685.03;;;1.48;73.54
57232;BME280;43488;46.934;8.276;2023-03-16T03:28:52;96671.09;;;1.49;73.41
57232;BME280;43488;46.934;8.276;2023-03-16T03:31:21;96675.75;;;1.46;73.91
57232;BME280;43488;46.934;8.276;2023-03-16T03:33:49;96677.53;;;1.45;74.14
57232;BME280;43488;46.934;8.276;2023-03-16T03:36:16;96683.41;;;1.47;74.57
57232;BME280;43488;46.934;8.276;2023-03-16T03:38:44;96670.28;;;1.49;74.61
57232;BME280;43488;46.934;8.276;2023-03-16T03:41:11;96669.16;;;1.51;74.90
57232;BME280;43488;46.934;8.276;2023-03-16T03:43:39;96673.31;;;1.44;74.86
57232;BME280;43488;46.934;8.276;2023-03-16T03:46:07;96670.34;;;1.39;74.83
57232;BME280;43488;46.934;8.276;2023-03-16T03:48:34;96667.94;;;1.28;75.07
57232;BME280;43488;46.934;8.276;2023-03-16T03:51:02;96666.84;;;1.30;75.70
57232;BME280;43488;46.934;8.276;2023-03-16T03:53:30;96666.59;;;1.24;76.02
57232;BME280;43488;46.934;8.276;2023-03-16T03:55:58;96666.19;;;1.28;76.52
57232;BME280;43488;46.934;8.276;2023-03-16T03:58:25;96659.22;;;1.29;76.41
57232;BME280;43488;46.934;8.276;2023-03-16T04:00:52;96668.53;;;1.22;76.09
57232;BME280;43488;46.934;8.276;2023-03-16T04:03:19;96666.19;;;1.28;75.74
57232;BME280;43488;46.934;8.276;2023-03-16T04:05:48;96666.59;;;1.24;75.56
57232;BME280;43488;46.934;8.276;2023-03-16T04:08:15;96654.59;;;1.23;75.46
57232;BME280;43488;46.934;8.276;2023-03-16T04:10:43;96650.22;;;1.23;75.74
57232;BME280;43488;46.934;8.276;2023-03-16T04:13:10;96658.81;;;1.24;74.91
57232;BME280;43488;46.934;8.276;2023-03-16T04:15:37;96656.53;;;1.21;75.01
57232;BME280;43488;46.934;8.276;2023-03-16T04:18:05;96654.91;;;1.20;74.93
57232;BME280;43488;46.934;8.276;2023-03-16T04:20:33;96661.03;;;1.19;74.83
57232;BME280;43488;46.934;8.276;2023-03-16T04:23:00;96651.91;;;1.14;74.88
57232;BME280;43488;46.934;8.276;2023-03-16T04:25:28;96651.53;;;1.09;74.69
57232;BME280;43488;46.934;8.276;2023-03-16T04:27:56;96646.47;;;1.08;74.96
57232;BME280;43488;46.934;8.276;2023-03-16T04:30:23;96650.69;;;1.09;75.25
57232;BME280;43488;46.934;8.276;2023-03-16T04:32:52;96651.06;;;0.96;76.08
57232;BME280;43488;46.934;8.276;2023-03-16T04:35:19;96645.00;;;1.05;76.32
57232;BME280;43488;46.934;8.276;2023-03-16T04:37:47;96633.66;;;1.06;76.39
57232;BME280;43488;46.934;8.276;2023-03-16T04:40:14;96634.78;;;1.04;76.87
57232;BME280;43488;46.934;8.276;2023-03-16T04:42:43;96627.97;;;1.03;76.72
57232;BME280;43488;46.934;8.276;2023-03-16T04:45:12;96635.28;;;1.07;76.14
57232;BME280;43488;46.934;8.276;2023-03-16T04:47:40;96634.25;;;1.00;76.63
57232;BME280;43488;46.934;8.276;2023-03-16T04:50:08;96628.25;;;1.00;76.85
57232;BME280;43488;46.934;8.276;2023-03-16T04:52:36;96630.00;;;0.99;76.59
57232;BME280;43488;46.934;8.276;2023-03-16T04:55:04;96624.06;;;0.89;76.94
57232;BME280;43488;46.934;8.276;2023-03-16T04:57:32;96625.28;;;0.95;76.82
57232;BME280;43488;46.934;8.276;2023-03-16T04:59:59;96621.88;;;0.94;76.88
57232;BME280;43488;46.934;8.276;2023-03-16T05:02:27;96613.56;;;0.91;77.17
57232;BME280;43488;46.934;8.276;2023-03-16T05:04:54;96615.47;;;0.89;76.96
57232;BME280;43488;46.934;8.276;2023-03-16T05:07:22;96619.56;;;0.91;76.47
57232;BME280;43488;46.934;8.276;2023-03-16T05:09:49;96606.22;;;0.86;77.22
57232;BME280;43488;46.934;8.276;2023-03-16T05:12:17;96620.25;;;0.93;76.93
57232;BME280;43488;46.934;8.276;2023-03-16T05:14:46;96620.75;;;0.97;76.66
57232;BME280;43488;46.934;8.276;2023-03-16T05:17:13;96618.84;;;0.99;76.85
57232;BME280;43488;46.934;8.276;2023-03-16T05:19:40;96615.72;;;0.95;77.06
57232;BME280;43488;46.934;8.276;2023-03-16T05:22:08;96611.91;;;0.90;76.85
57232;BME280;43488;46.934;8.276;2023-03-16T05:24:36;96619.47;;;0.83;77.23
57232;BME280;43488;46.934;8.276;2023-03-16T05:27:03;96618.66;;;0.82;77.86
57232;BME280;43488;46.934;8.276;2023-03-16T05:29:33;96611.41;;;0.86;78.47
57232;BME280;43488;46.934;8.276;2023-03-16T05:32:01;96620.66;;;0.89;77.64
57232;BME280;43488;46.934;8.276;2023-03-16T05:34:28;96619.03;;;0.88;77.90
57232;BME280;43488;46.934;8.276;2023-03-16T05:36:55;96612.53;;;0.83;77.54
57232;BME280;43488;46.934;8.276;2023-03-16T05:39:22;96607.34;;;0.83;77.94
57232;BME280;43488;46.934;8.276;2023-03-16T05:41:51;96626.56;;;0.81;78.14
57232;BME280;43488;46.934;8.276;2023-03-16T05:44:21;96613.59;;;0.81;78.30
57232;BME280;43488;46.934;8.276;2023-03-16T05:46:49;96615.22;;;0.82;78.14
57232;BME280;43488;46.934;8.276;2023-03-16T05:49:17;96617.00;;;0.81;78.62
57232;BME280;43488;46.934;8.276;2023-03-16T05:51:44;96619.09;;;0.78;78.50
57232;BME280;43488;46.934;8.276;2023-03-16T05:54:12;96621.69;;;0.78;79.24
57232;BME280;43488;46.934;8.276;2023-03-16T05:56:40;96625.09;;;0.78;79.63
57232;BME280;43488;46.934;8.276;2023-03-16T05:59:07;96616.78;;;0.75;79.18
57232;BME280;43488;46.934;8.276;2023-03-16T06:01:35;96628.78;;;0.76;79.83
57232;BME280;43488;46.934;8.276;2023-03-16T06:04:02;96623.31;;;0.79;79.92
57232;BME280;43488;46.934;8.276;2023-03-16T06:06:31;96616.75;;;0.84;80.49
57232;BME280;43488;46.934;8.276;2023-03-16T06:08:58;96623.41;;;0.87;80.59
57232;BME280;43488;46.934;8.276;2023-03-16T06:11:27;96629.09;;;0.91;80.44
57232;BME280;43488;46.934;8.276;2023-03-16T06:13:54;96628.69;;;0.95;79.90
57232;BME280;43488;46.934;8.276;2023-03-16T06:16:24;96626.09;;;0.95;79.90
57232;BME280;43488;46.934;8.276;2023-03-16T06:18:51;96627.72;;;0.96;79.31
57232;BME280;43488;46.934;8.276;2023-03-16T06:21:19;96626.50;;;0.91;79.36
57232;BME280;43488;46.934;8.276;2023-03-16T06:23:46;96638.66;;;0.90;80.22
57232;BME280;43488;46.934;8.276;2023-03-16T06:26:14;96637.44;;;0.94;80.87
57232;BME280;43488;46.934;8.276;2023-03-16T06:28:41;96637.78;;;0.99;80.75
57232;BME280;43488;46.934;8.276;2023-03-16T06:31:08;96638.59;;;1.00;80.90
57232;BME280;43488;46.934;8.276;2023-03-16T06:33:37;96641.75;;;1.03;80.58
57232;BME280;43488;46.934;8.276;2023-03-16T06:36:07;96646.34;;;1.09;80.75
57232;BME280;43488;46.934;8.276;2023-03-16T06:38:35;96653.84;;;1.12;80.71
57232;BME280;43488;46.934;8.276;2023-03-16T06:41:02;96649.16;;;1.16;80.58
57232;BME280;43488;46.934;8.276;2023-03-16T06:43:30;96646.31;;;1.19;80.51
57232;BME280;43488;46.934;8.276;2023-03-16T06:45:57;96640.88;;;1.12;80.71
57232;BME280;43488;46.934;8.276;2023-03-16T06:48:24;96642.22;;;1.17;80.43
57232;BME280;43488;46.934;8.276;2023-03-16T06:50:52;96650.53;;;1.20;80.10
57232;BME280;43488;46.934;8.276;2023-03-16T06:53:19;96644.22;;;1.23;80.15
57232;BME280;43488;46.934;8.276;2023-03-16T06:55:48;96649.50;;;1.31;79.30
57232;BME280;43488;46.934;8.276;2023-03-16T06:58:15;96648.25;;;1.35;79.28
57232;BME280;43488;46.934;8.276;2023-03-16T07:00:42;96647.34;;;1.44;79.46
57232;BME280;43488;46.934;8.276;2023-03-16T07:03:10;96654.91;;;1.55;79.61
57232;BME280;43488;46.934;8.276;2023-03-16T07:05:37;96658.28;;;1.65;79.21
57232;BME280;43488;46.934;8.276;2023-03-16T07:08:04;96657.81;;;1.70;79.50
57232;BME280;43488;46.934;8.276;2023-03-16T07:10:32;96666.13;;;1.74;80.08
57232;BME280;43488;46.934;8.276;2023-03-16T07:13:00;96667.72;;;1.84;79.76
57232;BME280;43488;46.934;8.276;2023-03-16T07:15:28;96686.47;;;1.78;80.43
57232;BME280;43488;46.934;8.276;2023-03-16T07:17:55;96689.72;;;1.80;80.35
57232;BME280;43488;46.934;8.276;2023-03-16T07:20:23;96693.13;;;1.81;79.73
57232;BME280;43488;46.934;8.276;2023-03-16T07:22:51;96682.31;;;1.85;80.39
57232;BME280;43488;46.934;8.276;2023-03-16T07:25:18;96694.91;;;1.98;79.96
57232;BME280;43488;46.934;8.276;2023-03-16T07:27:45;96708.47;;;2.10;79.63
57232;BME280;43488;46.934;8.276;2023-03-16T07:30:13;96700.00;;;2.25;79.57
57232;BME280;43488;46.934;8.276;2023-03-16T07:32:41;96699.84;;;2.27;79.23
57232;BME280;43488;46.934;8.276;2023-03-16T07:35:10;96701.75;;;2.43;79.23
57232;BME280;43488;46.934;8.276;2023-03-16T07:37:38;96696.84;;;2.58;80.88
57232;BME280;43488;46.934;8.276;2023-03-16T07:40:05;96680.31;;;2.67;80.74
57232;BME280;43488;46.934;8.276;2023-03-16T07:42:36;96687.66;;;2.71;79.52
57232;BME280;43488;46.934;8.276;2023-03-16T07:45:05;96690.94;;;2.81;79.76
57232;BME280;43488;46.934;8.276;2023-03-16T07:47:33;96692.19;;;2.95;77.97
57232;BME280;43488;46.934;8.276;2023-03-16T07:50:00;96693.31;;;2.93;77.30
57232;BME280;43488;46.934;8.276;2023-03-16T07:52:27;96692.66;;;2.99;75.62
57232;BME280;43488;46.934;8.276;2023-03-16T07:54:54;96682.66;;;3.12;74.63
57232;BME280;43488;46.934;8.276;2023-03-16T07:57:22;96668.84;;;3.20;73.89
57232;BME280;43488;46.934;8.276;2023-03-16T07:59:49;96678.47;;;3.27;72.11
57232;BME280;43488;46.934;8.276;2023-03-16T08:02:19;96667.63;;;3.32;71.39
57232;BME280;43488;46.934;8.276;2023-03-16T08:04:49;96663.91;;;3.42;70.55
57232;BME280;43488;46.934;8.276;2023-03-16T08:07:16;96657.13;;;3.58;69.27
57232;BME280;43488;46.934;8.276;2023-03-16T08:09:44;96656.16;;;3.67;68.19
57232;BME280;43488;46.934;8.276;2023-03-16T08:12:12;96650.28;;;3.81;68.03
57232;BME280;43488;46.934;8.276;2023-03-16T08:14:39;96642.31;;;3.91;70.05
57232;BME280;43488;46.934;8.276;2023-03-16T08:17:07;96643.16;;;4.08;71.09
57232;BME280;43488;46.934;8.276;2023-03-16T08:19:34;96628.50;;;4.23;72.03
57232;BME280;43488;46.934;8.276;2023-03-16T08:22:02;96627.34;;;4.34;70.60
57232;BME280;43488;46.934;8.276;2023-03-16T08:24:30;96627.31;;;4.50;70.85
57232;BME280;43488;46.934;8.276;2023-03-16T08:26:58;96626.47;;;4.57;68.20
57232;BME280;43488;46.934;8.276;2023-03-16T08:29:26;96614.09;;;4.60;68.54
57232;BME280;43488;46.934;8.276;2023-03-16T08:31:53;96616.16;;;4.72;66.39
57232;BME280;43488;46.934;8.276;2023-03-16T08:34:23;96611.25;;;4.85;64.80
57232;BME280;43488;46.934;8.276;2023-03-16T08:36:51;96607.44;;;4.96;64.18
57232;BME280;43488;46.934;8.276;2023-03-16T08:39:19;96606.88;;;5.09;64.77
57232;BME280;43488;46.934;8.276;2023-03-16T08:41:48;96602.47;;;5.09;65.00
57232;BME280;43488;46.934;8.276;2023-03-16T08:44:15;96598.84;;;5.19;63.73
57232;BME280;43488;46.934;8.276;2023-03-16T08:46:43;96597.13;;;5.34;64.29
57232;BME280;43488;46.934;8.276;2023-03-16T08:49:10;96584.44;;;5.54;64.04
57232;BME280;43488;46.934;8.276;2023-03-16T08:51:39;96584.56;;;5.60;63.98
57232;BME280;43488;46.934;8.276;2023-03-16T08:54:06;96586.41;;;5.75;62.91
57232;BME280;43488;46.934;8.276;2023-03-16T08:56:34;96587.22;;;5.75;62.73
57232;BME280;43488;46.934;8.276;2023-03-16T08:59:01;96581.44;;;5.88;60.01
57232;BME280;43488;46.934;8.276;2023-03-16T09:01:32;96577.44;;;6.00;59.29
57232;BME280;43488;46.934;8.276;2023-03-16T09:04:00;96576.09;;;6.04;57.96
57232;BME280;43488;46.934;8.276;2023-03-16T09:06:29;96585.38;;;6.21;58.52
57232;BME280;43488;46.934;8.276;2023-03-16T09:08:56;96582.44;;;6.24;57.98
57232;BME280;43488;46.934;8.276;2023-03-16T09:11:23;96575.41;;;6.40;58.74
57232;BME280;43488;46.934;8.276;2023-03-16T09:13:54;96572.91;;;6.32;57.05
57232;BME280;43488;46.934;8.276;2023-03-16T09:16:24;96580.28;;;6.43;56.77
57232;BME280;43488;46.934;8.276;2023-03-16T09:18:52;96583.00;;;6.64;55.39
57232;BME280;43488;46.934;8.276;2023-03-16T09:21:20;96584.81;;;6.78;53.88
57232;BME280;43488;46.934;8.276;2023-03-16T09:23:48;96588.78;;;6.74;51.93
57232;BME280;43488;46.934;8.276;2023-03-16T09:26:15;96578.31;;;6.89;52.16
57232;BME280;43488;46.934;8.276;2023-03-16T09:28:42;96580.88;;;7.04;52.71
57232;BME280;43488;46.934;8.276;2023-03-16T09:31:16;96578.69;;;7.22;52.20
57232;BME280;43488;46.934;8.276;2023-03-16T09:33:44;96580.69;;;7.20;50.35
57232;BME280;43488;46.934;8.276;2023-03-16T09:36:12;96576.97;;;7.29;51.05
57232;BME280;43488;46.934;8.276;2023-03-16T09:38:40;96577.53;;;7.25;51.71
57232;BME280;43488;46.934;8.276;2023-03-16T09:46:59;96562.50;;;7.76;54.66
57232;BME280;43488;46.934;8.276;2023-03-16T09:49:39;96572.56;;;7.51;54.13
57232;BME280;43488;46.934;8.276;2023-03-16T09:55:36;96564.66;;;7.87;52.31
57232;BME280;43488;46.934;8.276;2023-03-16T09:58:19;96565.19;;;7.83;52.77
57232;BME280;43488;46.934;8.276;2023-03-16T10:01:29;96556.41;;;8.18;52.40
57232;BME280;43488;46.934;8.276;2023-03-16T10:04:40;96549.56;;;8.17;49.82
57232;BME280;43488;46.934;8.276;2023-03-16T10:10:01;96546.34;;;8.22;49.47
57232;BME280;43488;46.934;8.276;2023-03-16T10:12:38;96539.13;;;8.24;49.49
57232;BME280;43488;46.934;8.276;2023-03-16T10:15:19;96536.69;;;8.50;51.91
57232;BME280;43488;46.934;8.276;2023-03-16T10:17:56;96539.34;;;8.57;50.00
57232;BME280;43488;46.934;8.276;2023-03-16T10:20:27;96539.06;;;8.80;51.52
57232;BME280;43488;46.934;8.276;2023-03-16T10:23:07;96527.06;;;9.12;47.70
57232;BME280;43488;46.934;8.276;2023-03-16T10:25:52;96530.38;;;9.47;49.95
57232;BME280;43488;46.934;8.276;2023-03-16T10:28:26;96530.78;;;9.51;46.38
57232;BME280;43488;46.934;8.276;2023-03-16T10:30:56;96526.19;;;9.73;46.99
57232;BME280;43488;46.934;8.276;2023-03-16T10:33:32;96521.31;;;9.83;46.83
57232;BME280;43488;46.934;8.276;2023-03-16T10:36:40;96515.03;;;9.57;42.53
57232;BME280;43488;46.934;8.276;2023-03-16T10:39:12;96512.22;;;9.52;44.85
57232;BME280;43488;46.934;8.276;2023-03-16T10:41:43;96518.50;;;9.91;48.41
57232;BME280;43488;46.934;8.276;2023-03-16T10:44:21;96510.78;;;9.96;47.55
57232;BME280;43488;46.934;8.276;2023-03-16T10:47:05;96508.97;;;9.96;43.78
57232;BME280;43488;46.934;8.276;2023-03-16T10:49:39;96502.28;;;10.14;45.86
57232;BME280;43488;46.934;8.276;2023-03-16T10:52:36;96500.06;;;10.31;45.40
57232;BME280;43488;46.934;8.276;2023-03-16T10:55:15;96506.88;;;10.58;46.32
57232;BME280;43488;46.934;8.276;2023-03-16T10:57:50;96503.16;;;10.86;45.70
57232;BME280;43488;46.934;8.276;2023-03-16T11:00:34;96497.94;;;11.17;47.96
57232;BME280;43488;46.934;8.276;2023-03-16T11:03:21;96491.06;;;11.48;47.25
57232;BME280;43488;46.934;8.276;2023-03-16T11:06:02;96502.78;;;11.52;44.49
57232;BME280;43488;46.934;8.276;2023-03-16T11:08:36;96497.50;;;11.58;43.50
57232;BME280;43488;46.934;8.276;2023-03-16T11:11:15;96501.81;;;11.78;43.20
57232;BME280;43488;46.934;8.276;2023-03-16T11:13:47;96503.34;;;11.92;43.79
57232;BME280;43488;46.934;8.276;2023-03-16T11:16:30;96504.22;;;11.79;42.62
57232;BME280;43488;46.934;8.276;2023-03-16T11:19:15;96500.19;;;12.08;42.85
57232;BME280;43488;46.934;8.276;2023-03-16T11:21:56;96498.19;;;12.04;42.60
57232;BME280;43488;46.934;8.276;2023-03-16T11:24:49;96489.44;;;12.28;41.54
57232;BME280;43488;46.934;8.276;2023-03-16T11:30:48;96481.81;;;11.95;40.94
57232;BME280;43488;46.934;8.276;2023-03-16T11:33:17;96472.53;;;12.36;41.03
57232;BME280;43488;46.934;8.276;2023-03-16T11:36:51;96476.03;;;12.30;39.46
57232;BME280;43488;46.934;8.276;2023-03-16T11:39:02;96476.31;;;11.72;40.01
57232;BME280;43488;46.934;8.276;2023-03-16T11:48:03;96475.75;;;12.74;39.86
57232;BME280;43488;46.934;8.276;2023-03-16T11:57:40;96472.28;;;12.92;39.76
57232;BME280;43488;46.934;8.276;2023-03-16T12:00:18;96466.09;;;12.80;39.60
57232;BME280;43488;46.934;8.276;2023-03-16T12:03:13;96464.06;;;13.30;38.85
57232;BME280;43488;46.934;8.276;2023-03-16T12:06:35;96453.00;;;13.22;37.06
57232;BME280;43488;46.934;8.276;2023-03-16T12:14:46;96440.47;;;14.06;37.36
57232;BME280;43488;46.934;8.276;2023-03-16T12:17:22;96451.31;;;14.04;36.26
57232;BME280;43488;46.934;8.276;2023-03-16T12:22:52;96454.25;;;14.43;36.89
57232;BME280;43488;46.934;8.276;2023-03-16T12:25:27;96454.41;;;14.24;38.76
57232;BME280;43488;46.934;8.276;2023-03-16T12:27:59;96452.91;;;14.29;37.48
57232;BME280;43488;46.934;8.276;2023-03-16T12:30:54;96450.91;;;14.71;37.87
57232;BME280;43488;46.934;8.276;2023-03-16T12:39:49;96447.28;;;15.17;36.35
57232;BME280;43488;46.934;8.276;2023-03-16T12:48:17;96428.31;;;15.08;36.34
57232;BME280;43488;46.934;8.276;2023-03-16T12:50:56;96419.69;;;15.30;35.85
57232;BME280;43488;46.934;8.276;2023-03-16T12:53:51;96412.81;;;15.46;35.08
57232;BME280;43488;46.934;8.276;2023-03-16T12:56:32;96425.47;;;15.44;36.51
57232;BME280;43488;46.934;8.276;2023-03-16T12:59:05;96408.22;;;15.58;35.30
57232;BME280;43488;46.934;8.276;2023-03-16T13:01:41;96412.94;;;15.39;36.16
57232;BME280;43488;46.934;8.276;2023-03-16T13:07:07;96421.31;;;15.98;36.31
57232;BME280;43488;46.934;8.276;2023-03-16T13:09:41;96412.78;;;16.13;35.10
57232;BME280;43488;46.934;8.276;2023-03-16T13:14:53;96413.69;;;16.40;35.57
57232;BME280;43488;46.934;8.276;2023-03-16T13:17:30;96408.94;;;16.42;33.90
57232;BME280;43488;46.934;8.276;2023-03-16T13:20:28;96409.09;;;16.74;35.15
57232;BME280;43488;46.934;8.276;2023-03-16T13:23:22;96409.38;;;16.56;34.17
57232;BME280;43488;46.934;8.276;2023-03-16T13:26:17;96408.22;;;16.69;34.61
57232;BME280;43488;46.934;8.276;2023-03-16T13:28:51;96401.34;;;16.29;35.03
57232;BME280;43488;46.934;8.276;2023-03-16T13:31:27;96405.03;;;16.50;34.13
57232;BME280;43488;46.934;8.276;2023-03-16T13:33:59;96396.94;;;16.40;34.78
57232;BME280;43488;46.934;8.276;2023-03-16T13:36:28;96404.75;;;16.08;34.81
57232;BME280;43488;46.934;8.276;2023-03-16T13:39:17;96404.59;;;15.98;34.70
57232;BME280;43488;46.934;8.276;2023-03-16T13:44:38;96398.88;;;16.06;35.46
57232;BME280;43488;46.934;8.276;2023-03-16T13:47:12;96393.34;;;15.90;36.50
57232;BME280;43488;46.934;8.276;2023-03-16T13:49:57;96397.94;;;15.78;36.66
57232;BME280;43488;46.934;8.276;2023-03-16T13:52:32;96398.66;;;15.90;35.83
57232;BME280;43488;46.934;8.276;2023-03-16T13:55:09;96396.69;;;15.35;35.10
57232;BME280;43488;46.934;8.276;2023-03-16T13:57:39;96399.34;;;15.64;35.62
57232;BME280;43488;46.934;8.276;2023-03-16T14:00:23;96390.47;;;15.92;36.26
57232;BME280;43488;46.934;8.276;2023-03-16T14:02:54;96387.03;;;16.13;35.05
57232;BME280;43488;46.934;8.276;2023-03-16T14:05:28;96402.84;;;16.25;34.56
57232;BME280;43488;46.934;8.276;2023-03-16T14:07:57;96390.91;;;16.66;35.53
57232;BME280;43488;46.934;8.276;2023-03-16T14:10:34;96390.06;;;16.83;34.88
57232;BME280;43488;46.934;8.276;2023-03-16T14:16:01;96383.91;;;16.82;35.58
57232;BME280;43488;46.934;8.276;2023-03-16T14:18:45;96379.13;;;16.62;33.27
57232;BME280;43488;46.934;8.276;2023-03-16T14:21:20;96376.72;;;17.04;33.62
57232;BME280;43488;46.934;8.276;2023-03-16T14:24:04;96378.31;;;17.32;32.87
57232;BME280;43488;46.934;8.276;2023-03-16T14:26:45;96370.28;;;17.59;33.27
57232;BME280;43488;46.934;8.276;2023-03-16T14:29:29;96369.91;;;17.78;32.55
57232;BME280;43488;46.934;8.276;2023-03-16T14:31:58;96364.91;;;17.86;32.19
57232;BME280;43488;46.934;8.276;2023-03-16T14:34:36;96364.19;;;17.32;32.43
57232;BME280;43488;46.934;8.276;2023-03-16T14:37:14;96365.34;;;17.41;33.17
57232;BME280;43488;46.934;8.276;2023-03-16T14:39:56;96363.75;;;17.45;32.22